Time;durP1;ratioP1;P1;durP2;ratioP2;P2;SDS_P1;SDS_P2;PMS_P1;PMS_P2;Temp;Humidity;BMP_temperature;BMP_pressure;BME280_temperature;BME280_humidity;BME280_pressure;Samples;Min_cycle;Max_cycle;Signal;HPM_P1;HPM_P2
2021/08/30 00:01:40;;;;;;;8.10;5.82;;;;;;;;;;758741;182;918281;-66
2021/08/30 00:04:06;;;;;;;7.63;6.80;;;;;;;;;;754906;184;918216;-67
2021/08/30 00:06:32;;;;;;;8.23;5.53;;;;;;;;;;754501;184;915657;-66
2021/08/30 00:08:58;;;;;;;11.73;5.77;;;;;;;;;;759434;184;919167;-66
2021/08/30 00:11:23;;;;;;;20.47;6.70;;;;;;;;;;753442;182;916107;-66
2021/08/30 00:13:49;;;;;;;7.20;6.27;;;;;;;;;;752730;184;919808;-66
2021/08/30 00:16:15;;;;;;;7.47;5.10;;;;;;;;;;755006;184;918372;-66
2021/08/30 00:18:41;;;;;;;6.60;5.33;;;;;;;;;;760369;184;918917;-66
2021/08/30 00:21:07;;;;;;;6.90;5.80;;;;;;;;;;754545;184;919545;-66
2021/08/30 00:23:33;;;;;;;8.87;5.80;;;;;;;;;;754513;184;918811;-66
2021/08/30 00:26:00;;;;;;;7.23;5.27;;;;;;;;;;759495;184;918928;-66
2021/08/30 00:28:24;;;;;;;8.47;5.70;;;;;;;;;;755878;184;918469;-66
2021/08/30 00:30:51;;;;;;;7.57;6.50;;;;;;;;;;758083;184;945773;-66
2021/08/30 00:33:17;;;;;;;7.47;5.53;;;;;;;;;;759678;184;919221;-66
2021/08/30 00:35:43;;;;;;;6.07;5.10;;;;;;;;;;755907;184;919089;-66
2021/08/30 00:38:09;;;;;;;12.77;5.77;;;;;;;;;;759111;183;919022;-66
2021/08/30 00:40:35;;;;;;;7.33;5.50;;;;;;;;;;754581;183;919429;-66
2021/08/30 00:43:00;;;;;;;7.07;4.87;;;;;;;;;;760326;183;920821;-66
2021/08/30 00:45:26;;;;;;;8.50;5.40;;;;;;;;;;755921;183;921073;-66
2021/08/30 00:47:53;;;;;;;7.10;5.20;;;;;;;;;;754040;183;1019526;-66
2021/08/30 00:50:18;;;;;;;9.10;5.80;;;;;;;;;;758607;182;1108546;-66
2021/08/30 00:52:44;;;;;;;11.63;6.17;;;;;;;;;;754988;183;919830;-66
2021/08/30 00:55:10;;;;;;;7.00;5.87;;;;;;;;;;753628;182;927373;-66
2021/08/30 00:57:36;;;;;;;7.33;5.03;;;;;;;;;;758417;184;918367;-66
2021/08/30 01:00:02;;;;;;;5.70;5.13;;;;;;;;;;754564;180;918808;-66
2021/08/30 01:02:28;;;;;;;14.53;5.47;;;;;;;;;;752516;184;918775;-66
2021/08/30 01:04:53;;;;;;;6.67;5.37;;;;;;;;;;754490;183;919101;-65
2021/08/30 01:07:20;;;;;;;7.97;6.00;;;;;;;;;;753353;184;918901;-66
2021/08/30 01:09:46;;;;;;;13.83;6.20;;;;;;;;;;753333;184;919167;-66
2021/08/30 01:12:16;;;;;;;8.55;6.40;;;;;;;;;;753671;184;918792;-66
2021/08/30 01:14:48;;;;;;;8.90;6.13;;;;;;;;;;760356;184;918906;-67
2021/08/30 01:17:14;;;;;;;7.37;6.37;;;;;;;;;;757994;184;919179;-67
2021/08/30 01:19:40;;;;;;;8.20;6.50;;;;;;;;;;752082;184;918819;-68
2021/08/30 01:22:06;;;;;;;7.80;5.80;;;;;;;;;;752728;184;918922;-67
2021/08/30 01:24:31;;;;;;;11.20;6.20;;;;;;;;;;758815;184;919384;-68
2021/08/30 01:26:57;;;;;;;15.17;6.60;;;;;;;;;;755461;184;928349;-69
2021/08/30 01:29:25;;;;;;;8.87;7.20;;;;;;;;;;754552;184;920122;-67
2021/08/30 01:31:51;;;;;;;11.13;8.20;;;;;;;;;;758762;184;918957;-67
2021/08/30 01:34:17;;;;;;;8.60;6.50;;;;;;;;;;749153;184;919919;-69
2021/08/30 01:36:43;;;;;;;8.60;6.27;;;;;;;;;;754183;184;919281;-67
2021/08/30 01:39:08;;;;;;;10.88;6.05;;;;;;;;;;755541;184;919165;-67
2021/08/30 01:41:34;;;;;;;8.93;6.57;;;;;;;;;;758665;183;919905;-68
2021/08/30 01:44:00;;;;;;;8.80;6.17;;;;;;;;;;754324;183;919471;-67
2021/08/30 01:46:26;;;;;;;8.80;6.90;;;;;;;;;;755782;181;919386;-68
2021/08/30 01:48:52;;;;;;;8.60;7.07;;;;;;;;;;763005;183;918716;-67
2021/08/30 01:51:20;;;;;;;8.40;6.67;;;;;;;;;;752573;181;1634831;-67
2021/08/30 01:53:44;;;;;;;9.43;7.07;;;;;;;;;;756128;183;918127;-67
2021/08/30 01:56:10;;;;;;;8.40;7.15;;;;;;;;;;760906;184;917925;-67
2021/08/30 02:01:09;;;;;;;9.40;7.10;;;;;;;;;;754954;184;919343;-67
2021/08/30 02:03:34;;;;;;;13.35;8.18;;;;;;;;;;753879;183;918790;-67
2021/08/30 02:06:00;;;;;;;12.47;7.47;;;;;;;;;;759032;183;918980;-67
2021/08/30 02:08:27;;;;;;;12.17;6.97;;;;;;;;;;753896;184;920056;-67
2021/08/30 02:10:52;;;;;;;9.03;7.37;;;;;;;;;;754757;183;918520;-67
2021/08/30 02:13:18;;;;;;;8.97;7.90;;;;;;;;;;760483;184;918866;-67
2021/08/30 02:15:44;;;;;;;9.47;7.60;;;;;;;;;;755044;184;919285;-67
2021/08/30 02:18:29;;;;;;;10.17;8.20;;;;;;;;;;754417;183;919901;-67
2021/08/30 02:20:56;;;;;;;13.93;7.63;;;;;;;;;;754418;184;919697;-67
2021/08/30 02:23:22;;;;;;;10.23;9.00;;;;;;;;;;752722;184;919411;-67
2021/08/30 02:25:47;;;;;;;8.40;7.03;;;;;;;;;;759845;184;918725;-66
2021/08/30 02:28:13;;;;;;;10.67;7.80;;;;;;;;;;754422;184;915230;-65
2021/08/30 02:30:39;;;;;;;10.43;7.53;;;;;;;;;;755154;184;916277;-68
2021/08/30 02:33:05;;;;;;;11.10;7.73;;;;;;;;;;758538;184;915907;-67
2021/08/30 02:35:31;;;;;;;9.70;7.40;;;;;;;;;;753400;184;918996;-66
2021/08/30 02:37:57;;;;;;;8.73;7.13;;;;;;;;;;754321;184;919241;-67
2021/08/30 02:40:23;;;;;;;8.33;6.77;;;;;;;;;;760156;184;927270;-67
2021/08/30 02:42:48;;;;;;;11.13;7.97;;;;;;;;;;754853;184;918990;-67
2021/08/30 02:45:14;;;;;;;10.10;8.00;;;;;;;;;;755581;184;919548;-67
2021/08/30 02:47:40;;;;;;;9.47;6.83;;;;;;;;;;754499;184;919005;-66
2021/08/30 02:50:06;;;;;;;9.50;7.30;;;;;;;;;;757600;179;917862;-68
2021/08/30 02:52:32;;;;;;;9.40;7.40;;;;;;;;;;757834;182;918835;-67
2021/08/30 02:54:58;;;;;;;8.93;7.70;;;;;;;;;;755832;183;919370;-67
2021/08/30 02:57:24;;;;;;;9.23;7.07;;;;;;;;;;760563;183;918524;-66
2021/08/30 02:59:51;;;;;;;9.00;7.03;;;;;;;;;;755325;183;919893;-67
2021/08/30 03:02:16;;;;;;;12.47;7.17;;;;;;;;;;755992;184;920051;-67
2021/08/30 03:04:41;;;;;;;8.30;7.00;;;;;;;;;;761797;183;918886;-66
2021/08/30 03:07:07;;;;;;;10.00;7.67;;;;;;;;;;755189;183;919065;-67
2021/08/30 03:09:33;;;;;;;9.03;7.37;;;;;;;;;;756180;181;918714;-67
2021/08/30 03:11:59;;;;;;;11.23;8.37;;;;;;;;;;755313;184;918844;-66
2021/08/30 03:14:25;;;;;;;8.90;7.23;;;;;;;;;;755500;184;919558;-67
2021/08/30 03:16:52;;;;;;;8.97;6.90;;;;;;;;;;753319;183;920660;-67
2021/08/30 03:19:16;;;;;;;7.80;6.45;;;;;;;;;;754517;184;920401;-66
2021/08/30 03:21:42;;;;;;;9.60;8.37;;;;;;;;;;760147;183;916850;-66
2021/08/30 03:24:08;;;;;;;9.00;7.07;;;;;;;;;;755841;183;919314;-67
2021/08/30 03:26:34;;;;;;;8.88;6.70;;;;;;;;;;754988;183;1021486;-66
2021/08/30 03:29:00;;;;;;;9.33;7.20;;;;;;;;;;759565;184;918754;-67
2021/08/30 03:31:27;;;;;;;11.30;7.90;;;;;;;;;;756821;184;919875;-68
2021/08/30 03:33:51;;;;;;;8.90;6.63;;;;;;;;;;753694;184;920016;-66
2021/08/30 03:36:17;;;;;;;13.80;7.70;;;;;;;;;;759305;184;918694;-67
2021/08/30 03:38:43;;;;;;;12.33;7.73;;;;;;;;;;753005;181;918973;-68
2021/08/30 03:41:12;;;;;;;11.50;7.67;;;;;;;;;;753065;184;920309;-68
2021/08/30 03:43:37;;;;;;;9.07;8.13;;;;;;;;;;752472;184;943587;-68
2021/08/30 03:46:03;;;;;;;11.87;8.23;;;;;;;;;;759375;184;918113;-67
2021/08/30 03:48:29;;;;;;;12.63;8.57;;;;;;;;;;754053;181;921220;-67
2021/08/30 03:50:55;;;;;;;10.80;8.38;;;;;;;;;;753089;184;916364;-67
2021/08/30 03:53:21;;;;;;;10.50;8.17;;;;;;;;;;759673;184;928495;-67
2021/08/30 03:55:47;;;;;;;10.23;8.73;;;;;;;;;;756494;184;915898;-67
2021/08/30 03:58:13;;;;;;;11.60;8.43;;;;;;;;;;754705;184;918726;-67
2021/08/30 04:00:40;;;;;;;8.77;7.87;;;;;;;;;;758103;182;919526;-66
2021/08/30 04:03:05;;;;;;;9.83;7.83;;;;;;;;;;764689;181;919363;-67
2021/08/30 04:05:31;;;;;;;12.03;7.73;;;;;;;;;;763432;182;632999;-67
2021/08/30 04:07:57;;;;;;;9.73;7.07;;;;;;;;;;756141;183;918307;-67
2021/08/30 04:10:22;;;;;;;8.20;6.87;;;;;;;;;;760930;183;918783;-67
2021/08/30 04:12:48;;;;;;;8.40;6.50;;;;;;;;;;757777;184;919270;-66
2021/08/30 04:15:14;;;;;;;10.37;6.80;;;;;;;;;;756314;181;918699;-67
2021/08/30 04:17:40;;;;;;;15.30;7.10;;;;;;;;;;761077;183;919260;-66
2021/08/30 04:20:09;;;;;;;8.20;5.63;;;;;;;;;;753600;183;919424;-67
2021/08/30 04:22:35;;;;;;;8.07;6.50;;;;;;;;;;754892;183;919615;-67
2021/08/30 04:24:58;;;;;;;7.93;7.03;;;;;;;;;;758480;183;919245;-67
2021/08/30 04:27:24;;;;;;;7.97;6.33;;;;;;;;;;753936;183;919434;-67
2021/08/30 04:29:50;;;;;;;8.03;6.57;;;;;;;;;;754986;182;919413;-67
2021/08/30 04:32:16;;;;;;;6.67;6.00;;;;;;;;;;753323;183;927964;-66
2021/08/30 04:34:42;;;;;;;7.30;6.00;;;;;;;;;;759372;183;920304;-67
2021/08/30 04:37:07;;;;;;;8.60;7.20;;;;;;;;;;753937;184;919370;-67
2021/08/30 04:39:33;;;;;;;12.40;6.20;;;;;;;;;;754944;181;918667;-67
2021/08/30 04:41:59;;;;;;;9.00;6.87;;;;;;;;;;759437;184;920085;-66
2021/08/30 04:44:25;;;;;;;7.27;6.33;;;;;;;;;;754807;184;920357;-66
2021/08/30 04:46:50;;;;;;;10.57;6.35;;;;;;;;;;754712;182;918848;-66
2021/08/30 04:49:16;;;;;;;8.20;6.67;;;;;;;;;;758552;184;918727;-67
2021/08/30 04:51:42;;;;;;;10.60;6.70;;;;;;;;;;753137;184;922044;-66
2021/08/30 04:54:08;;;;;;;7.40;6.60;;;;;;;;;;754210;184;920443;-66
2021/08/30 04:56:34;;;;;;;7.73;6.93;;;;;;;;;;753666;184;916569;-66
2021/08/30 04:59:00;;;;;;;8.60;7.68;;;;;;;;;;753029;182;904916;-66
2021/08/30 05:01:25;;;;;;;10.50;8.57;;;;;;;;;;753114;184;917525;-66
2021/08/30 05:03:52;;;;;;;9.67;8.30;;;;;;;;;;753873;184;919054;-66
2021/08/30 05:06:17;;;;;;;13.13;9.07;;;;;;;;;;759517;184;916369;-68
2021/08/30 05:08:43;;;;;;;14.57;10.30;;;;;;;;;;755623;184;916567;-66
2021/08/30 05:11:09;;;;;;;13.40;10.40;;;;;;;;;;756775;182;915878;-66
2021/08/30 05:13:35;;;;;;;12.60;9.13;;;;;;;;;;760161;184;919107;-67
2021/08/30 05:16:01;;;;;;;13.80;9.90;;;;;;;;;;756879;183;919418;-66
2021/08/30 05:18:26;;;;;;;19.83;11.67;;;;;;;;;;757643;183;918781;-67
2021/08/30 05:20:53;;;;;;;15.68;11.65;;;;;;;;;;755796;182;918595;-66
2021/08/30 05:23:18;;;;;;;15.43;12.83;;;;;;;;;;754656;182;918305;-67
2021/08/30 05:25:44;;;;;;;20.87;12.80;;;;;;;;;;755224;183;925279;-66
2021/08/30 05:28:10;;;;;;;14.40;11.43;;;;;;;;;;754474;181;919120;-67
2021/08/30 05:30:36;;;;;;;15.47;11.00;;;;;;;;;;760593;183;919076;-67
2021/08/30 05:33:02;;;;;;;19.23;12.17;;;;;;;;;;755248;183;920198;-65
2021/08/30 05:35:28;;;;;;;16.02;11.80;;;;;;;;;;755572;183;919150;-68
2021/08/30 05:37:53;;;;;;;13.87;11.30;;;;;;;;;;760704;183;1021508;-66
2021/08/30 05:40:19;;;;;;;17.37;12.60;;;;;;;;;;755860;183;919455;-67
2021/08/30 05:42:45;;;;;;;14.70;10.50;;;;;;;;;;753464;182;919031;-67
2021/08/30 05:45:11;;;;;;;14.70;12.13;;;;;;;;;;759404;183;917623;-67
2021/08/30 05:47:37;;;;;;;15.20;11.50;;;;;;;;;;754255;181;918691;-67
2021/08/30 05:50:04;;;;;;;12.70;10.77;;;;;;;;;;754406;183;918522;-67
2021/08/30 05:52:30;;;;;;;13.57;10.63;;;;;;;;;;754140;183;918849;-67
2021/08/30 05:54:56;;;;;;;12.80;10.50;;;;;;;;;;760161;184;919017;-67
2021/08/30 05:57:22;;;;;;;12.23;10.93;;;;;;;;;;754679;184;919016;-67
2021/08/30 05:59:47;;;;;;;17.87;12.20;;;;;;;;;;752968;182;987420;-68
2021/08/30 06:02:13;;;;;;;14.33;10.83;;;;;;;;;;759305;184;918445;-66
2021/08/30 06:04:40;;;;;;;13.43;11.20;;;;;;;;;;753886;184;1019528;-67
2021/08/30 06:07:05;;;;;;;16.03;11.90;;;;;;;;;;754789;184;919492;-67
2021/08/30 06:09:33;;;;;;;18.10;11.20;;;;;;;;;;759663;184;919353;-67
2021/08/30 06:12:00;;;;;;;16.13;11.70;;;;;;;;;;755067;184;919471;-67
2021/08/30 06:14:26;;;;;;;15.68;11.48;;;;;;;;;;752845;181;918501;-67
2021/08/30 06:16:52;;;;;;;16.83;13.00;;;;;;;;;;752991;184;917883;-67
2021/08/30 06:19:18;;;;;;;17.97;12.77;;;;;;;;;;740581;184;4226240;-67
2021/08/30 06:21:44;;;;;;;15.40;13.00;;;;;;;;;;753562;184;919436;-67
2021/08/30 06:24:10;;;;;;;14.13;11.60;;;;;;;;;;755234;184;917508;-67
2021/08/30 06:26:37;;;;;;;16.80;12.37;;;;;;;;;;758455;185;919423;-67
2021/08/30 06:29:03;;;;;;;12.70;10.10;;;;;;;;;;759313;183;919335;-69
2021/08/30 06:31:28;;;;;;;13.05;10.68;;;;;;;;;;756981;183;919129;-68
2021/08/30 06:33:56;;;;;;;13.13;11.50;;;;;;;;;;759457;181;919043;-66
2021/08/30 06:36:21;;;;;;;11.77;10.40;;;;;;;;;;762830;180;918994;-69
2021/08/30 06:38:47;;;;;;;18.13;13.43;;;;;;;;;;754681;184;920876;-69
2021/08/30 06:41:12;;;;;;;12.20;10.90;;;;;;;;;;752949;181;918697;-67
2021/08/30 06:43:38;;;;;;;17.30;12.87;;;;;;;;;;760072;183;918836;-66
2021/08/30 06:46:04;;;;;;;12.35;10.63;;;;;;;;;;754607;183;1083057;-68
2021/08/30 06:48:30;;;;;;;12.20;10.90;;;;;;;;;;754599;181;919333;-69
2021/08/30 06:50:56;;;;;;;12.97;11.23;;;;;;;;;;760012;183;918161;-69
2021/08/30 06:53:22;;;;;;;10.57;9.47;;;;;;;;;;754774;181;918794;-68
2021/08/30 06:55:47;;;;;;;14.37;9.30;;;;;;;;;;753790;184;919278;-68
2021/08/30 06:58:13;;;;;;;11.93;10.15;;;;;;;;;;761083;183;919734;-68
2021/08/30 07:00:39;;;;;;;11.67;10.43;;;;;;;;;;754613;180;920503;-68
2021/08/30 07:03:05;;;;;;;13.57;10.17;;;;;;;;;;755971;183;921594;-68
2021/08/30 07:05:31;;;;;;;12.00;9.43;;;;;;;;;;754306;184;919525;-68
2021/08/30 07:07:57;;;;;;;10.40;9.27;;;;;;;;;;759131;184;920204;-68
2021/08/30 07:10:23;;;;;;;9.07;8.10;;;;;;;;;;755471;184;915807;-69
2021/08/30 07:12:48;;;;;;;10.00;8.27;;;;;;;;;;756340;181;918049;-68
2021/08/30 07:15:14;;;;;;;10.43;8.03;;;;;;;;;;758413;184;917826;-68
2021/08/30 07:17:40;;;;;;;10.13;8.83;;;;;;;;;;754243;180;929105;-68
2021/08/30 07:20:06;;;;;;;10.47;9.10;;;;;;;;;;754488;184;919423;-69
2021/08/30 07:22:32;;;;;;;11.87;9.43;;;;;;;;;;757815;184;1018355;-68
2021/08/30 07:24:58;;;;;;;11.40;8.93;;;;;;;;;;752734;184;916642;-69
2021/08/30 07:27:24;;;;;;;9.83;8.83;;;;;;;;;;753290;181;922544;-69
2021/08/30 07:29:50;;;;;;;10.63;8.67;;;;;;;;;;752686;184;918114;-69
2021/08/30 07:32:15;;;;;;;10.47;9.23;;;;;;;;;;755187;184;917776;-68
2021/08/30 07:34:41;;;;;;;10.40;8.95;;;;;;;;;;754657;184;942328;-69
2021/08/30 07:37:07;;;;;;;11.37;8.80;;;;;;;;;;753105;181;921794;-68
2021/08/30 07:39:33;;;;;;;10.13;8.50;;;;;;;;;;762269;183;917290;-68
2021/08/30 07:41:59;;;;;;;10.20;9.10;;;;;;;;;;760589;183;630138;-69
2021/08/30 07:44:25;;;;;;;11.13;8.73;;;;;;;;;;757358;181;1013685;-69
2021/08/30 07:46:50;;;;;;;12.47;8.47;;;;;;;;;;759998;183;916806;-69
2021/08/30 07:49:16;;;;;;;12.33;8.03;;;;;;;;;;757726;181;915843;-69
2021/08/30 07:51:42;;;;;;;10.27;7.40;;;;;;;;;;755042;183;1018417;-69
2021/08/30 07:54:08;;;;;;;9.53;8.47;;;;;;;;;;759088;183;916080;-68
2021/08/30 07:56:38;;;;;;;12.20;10.82;;;;;;;;;;759681;182;882166;-68
2021/08/30 07:59:00;;;;;;;13.93;11.37;;;;;;;;;;756074;180;915710;-68
2021/08/30 08:01:26;;;;;;;12.77;10.87;;;;;;;;;;759011;183;629601;-68
2021/08/30 08:03:51;;;;;;;11.67;9.87;;;;;;;;;;763506;182;621709;-69
2021/08/30 08:06:18;;;;;;;13.17;11.73;;;;;;;;;;755317;183;914855;-69
2021/08/30 08:08:43;;;;;;;12.13;10.37;;;;;;;;;;754673;183;919342;-69
2021/08/30 08:11:09;;;;;;;13.00;10.10;;;;;;;;;;759494;183;918648;-69
2021/08/30 08:13:35;;;;;;;13.25;10.20;;;;;;;;;;756210;183;918324;-69
2021/08/30 08:16:01;;;;;;;11.97;10.17;;;;;;;;;;754731;183;918754;-69
2021/08/30 08:18:26;;;;;;;13.13;10.53;;;;;;;;;;758837;184;919245;-69
2021/08/30 08:20:52;;;;;;;12.13;10.43;;;;;;;;;;752765;184;919005;-69
2021/08/30 08:23:18;;;;;;;12.00;9.47;;;;;;;;;;752865;184;918701;-69
2021/08/30 08:25:44;;;;;;;13.55;10.85;;;;;;;;;;753415;184;919448;-70
2021/08/30 08:28:10;;;;;;;12.50;10.80;;;;;;;;;;756796;184;918599;-69
2021/08/30 08:30:36;;;;;;;11.67;9.50;;;;;;;;;;755420;184;919442;-69
2021/08/30 08:33:02;;;;;;;10.93;9.20;;;;;;;;;;753308;184;919078;-69
2021/08/30 08:35:28;;;;;;;12.63;10.70;;;;;;;;;;758949;184;1021037;-69
2021/08/30 08:37:53;;;;;;;11.77;8.80;;;;;;;;;;755528;184;919769;-69
2021/08/30 08:40:19;;;;;;;10.70;9.03;;;;;;;;;;754070;184;920219;-68
2021/08/30 08:42:45;;;;;;;11.07;9.20;;;;;;;;;;758473;184;919237;-68
2021/08/30 08:45:12;;;;;;;11.90;9.87;;;;;;;;;;756171;184;918952;-69
2021/08/30 08:47:37;;;;;;;11.70;9.83;;;;;;;;;;753738;183;921181;-69
2021/08/30 08:50:04;;;;;;;11.97;9.43;;;;;;;;;;754597;182;917976;-68
2021/08/30 08:52:29;;;;;;;16.23;12.53;;;;;;;;;;757957;183;920417;-68
2021/08/30 08:54:55;;;;;;;16.10;12.10;;;;;;;;;;754774;181;918686;-69
2021/08/30 08:57:21;;;;;;;17.50;13.27;;;;;;;;;;755179;183;919497;-68
2021/08/30 08:59:53;;;;;;;14.57;12.10;;;;;;;;;;762156;183;886299;-69
2021/08/30 09:02:19;;;;;;;16.13;12.20;;;;;;;;;;755509;183;938911;-69
2021/08/30 09:04:45;;;;;;;13.65;12.00;;;;;;;;;;754176;183;918768;-69
2021/08/30 09:07:12;;;;;;;14.50;11.40;;;;;;;;;;754395;183;919806;-67
2021/08/30 09:09:38;;;;;;;16.27;12.47;;;;;;;;;;753052;184;919039;-69
2021/08/30 09:12:03;;;;;;;14.23;12.70;;;;;;;;;;753711;184;920020;-68
2021/08/30 09:14:29;;;;;;;18.20;12.67;;;;;;;;;;754171;183;919429;-69
2021/08/30 09:17:00;;;;;;;15.83;12.37;;;;;;;;;;758369;184;930004;-69
2021/08/30 09:19:26;;;;;;;16.80;14.30;;;;;;;;;;754895;182;918730;-68
2021/08/30 09:21:52;;;;;;;19.20;14.15;;;;;;;;;;754714;183;936512;-68
2021/08/30 09:24:17;;;;;;;16.23;14.47;;;;;;;;;;755726;183;928241;-68
2021/08/30 09:26:43;;;;;;;15.73;13.87;;;;;;;;;;757020;182;918224;-69
2021/08/30 09:29:09;;;;;;;17.53;15.73;;;;;;;;;;754061;184;920172;-69
2021/08/30 09:31:35;;;;;;;18.57;14.13;;;;;;;;;;753187;184;915952;-70
2021/08/30 09:34:01;;;;;;;18.87;15.23;;;;;;;;;;763447;184;915504;-70
2021/08/30 09:36:27;;;;;;;17.77;15.03;;;;;;;;;;754187;184;915389;-68
2021/08/30 09:38:53;;;;;;;17.63;15.00;;;;;;;;;;755781;184;915143;-69
2021/08/30 09:41:19;;;;;;;19.90;17.17;;;;;;;;;;759156;181;915916;-71
2021/08/30 09:43:44;;;;;;;21.57;18.30;;;;;;;;;;755027;181;919504;-69
2021/08/30 09:46:10;;;;;;;19.47;16.17;;;;;;;;;;753986;184;1021987;-69
2021/08/30 09:48:36;;;;;;;21.27;15.73;;;;;;;;;;759859;181;918319;-69
2021/08/30 09:51:02;;;;;;;17.17;15.30;;;;;;;;;;755326;184;920449;-69
2021/08/30 09:53:28;;;;;;;18.27;14.97;;;;;;;;;;753108;182;919252;-67
2021/08/30 09:55:54;;;;;;;20.13;16.77;;;;;;;;;;753622;184;919242;-69
2021/08/30 09:58:19;;;;;;;21.00;15.77;;;;;;;;;;760942;184;918679;-69
2021/08/30 10:00:45;;;;;;;17.17;14.43;;;;;;;;;;754822;184;918532;-68
2021/08/30 10:03:11;;;;;;;19.97;14.77;;;;;;;;;;755794;180;918723;-68
2021/08/30 10:05:37;;;;;;;19.60;16.27;;;;;;;;;;761533;183;918528;-69
2021/08/30 10:08:03;;;;;;;16.63;14.47;;;;;;;;;;756050;183;919731;-67
2021/08/30 10:10:29;;;;;;;19.77;15.80;;;;;;;;;;755119;183;922815;-68
2021/08/30 10:12:55;;;;;;;18.97;16.50;;;;;;;;;;760117;181;919479;-68
2021/08/30 10:15:21;;;;;;;16.53;14.83;;;;;;;;;;753806;182;919497;-67
2021/08/30 10:17:47;;;;;;;17.40;14.10;;;;;;;;;;754358;183;919141;-68
2021/08/30 10:20:16;;;;;;;17.20;14.77;;;;;;;;;;753937;184;919896;-67
2021/08/30 10:22:42;;;;;;;15.23;13.10;;;;;;;;;;759831;183;954433;-68
2021/08/30 10:25:16;;;;;;;14.50;12.53;;;;;;;;;;754525;183;919618;-69
2021/08/30 10:27:41;;;;;;;14.37;12.60;;;;;;;;;;754824;183;918898;-68
2021/08/30 10:30:09;;;;;;;18.50;13.70;;;;;;;;;;754731;183;918564;-68
2021/08/30 10:32:37;;;;;;;15.87;12.90;;;;;;;;;;751643;183;915890;-68
2021/08/30 10:35:09;;;;;;;21.47;15.50;;;;;;;;;;754608;182;915684;-69
2021/08/30 10:37:35;;;;;;;16.00;12.20;;;;;;;;;;754265;184;919797;-69
2021/08/30 10:40:01;;;;;;;13.88;12.45;;;;;;;;;;757197;184;922045;-69
2021/08/30 10:42:27;;;;;;;17.17;12.30;;;;;;;;;;750823;184;918636;-69
2021/08/30 10:44:54;;;;;;;13.50;11.43;;;;;;;;;;752838;184;919557;-69
2021/08/30 10:47:19;;;;;;;11.83;9.83;;;;;;;;;;752625;182;920816;-69
2021/08/30 10:49:48;;;;;;;12.73;11.33;;;;;;;;;;758796;184;913174;-69
2021/08/30 10:52:11;;;;;;;13.60;10.70;;;;;;;;;;755247;184;922473;-69
2021/08/30 10:54:37;;;;;;;11.40;9.10;;;;;;;;;;755872;184;920911;-69
2021/08/30 10:57:03;;;;;;;11.70;9.93;;;;;;;;;;756461;184;918420;-69
2021/08/30 10:59:29;;;;;;;12.63;8.67;;;;;;;;;;754676;184;921431;-68
2021/08/30 11:01:55;;;;;;;9.90;8.70;;;;;;;;;;756771;184;922639;-69
2021/08/30 11:04:28;;;;;;;7.95;6.05;;;;;;;;;;754575;184;920325;-69
2021/08/30 11:06:53;;;;;;;8.63;7.73;;;;;;;;;;762083;181;918600;-70
2021/08/30 11:09:19;;;;;;;8.60;7.70;;;;;;;;;;754864;184;917516;-69
2021/08/30 11:11:45;;;;;;;7.60;6.63;;;;;;;;;;753193;181;918748;-68
2021/08/30 11:14:11;;;;;;;9.90;6.73;;;;;;;;;;760636;180;918079;-70
2021/08/30 11:16:37;;;;;;;7.87;5.62;;;;;;;;;;755980;183;921539;-68
2021/08/30 11:19:03;;;;;;;9.47;6.97;;;;;;;;;;756018;183;919918;-70
2021/08/30 11:21:30;;;;;;;4.30;3.90;;;;;;;;;;754304;183;920710;-68
2021/08/30 11:23:56;;;;;;;4.50;4.10;;;;;;;;;;750893;183;920498;-70
2021/08/30 11:26:22;;;;;;;4.80;4.30;;;;;;;;;;754375;181;919478;-68
2021/08/30 11:28:57;;;;;;;5.20;3.87;;;;;;;;;;754647;183;914905;-69
2021/08/30 11:31:23;;;;;;;5.60;4.93;;;;;;;;;;757733;184;921968;-68
2021/08/30 11:33:49;;;;;;;6.90;6.20;;;;;;;;;;757650;183;920000;-69
2021/08/30 11:36:16;;;;;;;5.87;4.90;;;;;;;;;;753525;183;918087;-69
2021/08/30 11:38:41;;;;;;;5.10;4.23;;;;;;;;;;753294;181;918010;-68
2021/08/30 11:41:07;;;;;;;5.13;4.60;;;;;;;;;;759191;183;920028;-70
2021/08/30 11:43:32;;;;;;;6.37;5.33;;;;;;;;;;757727;183;918281;-68
2021/08/30 11:45:58;;;;;;;6.00;5.43;;;;;;;;;;754248;183;918459;-70
2021/08/30 11:48:25;;;;;;;5.80;5.20;;;;;;;;;;759954;182;915014;-69
2021/08/30 11:50:51;;;;;;;5.90;5.00;;;;;;;;;;753539;185;920728;-69
2021/08/30 11:53:17;;;;;;;5.65;4.57;;;;;;;;;;754088;184;919598;-70
2021/08/30 11:55:44;;;;;;;5.27;4.67;;;;;;;;;;757243;184;953868;-69
2021/08/30 11:58:10;;;;;;;5.10;4.43;;;;;;;;;;753657;184;920076;-70
2021/08/30 12:00:35;;;;;;;4.80;4.10;;;;;;;;;;753079;181;916085;-70
2021/08/30 12:03:01;;;;;;;6.13;4.80;;;;;;;;;;754826;181;915680;-70
2021/08/30 12:05:27;;;;;;;6.80;5.47;;;;;;;;;;757741;184;915929;-69
2021/08/30 12:07:53;;;;;;;6.27;5.07;;;;;;;;;;755939;184;914933;-70
2021/08/30 12:10:19;;;;;;;7.77;6.00;;;;;;;;;;753670;184;916988;-69
2021/08/30 12:12:54;;;;;;;6.97;5.90;;;;;;;;;;758812;181;913688;-70
2021/08/30 12:15:19;;;;;;;7.00;5.33;;;;;;;;;;753664;184;915190;-70
2021/08/30 12:17:45;;;;;;;5.60;5.10;;;;;;;;;;753172;182;917115;-70
2021/08/30 12:20:11;;;;;;;8.33;6.30;;;;;;;;;;752764;183;916057;-70
2021/08/30 12:22:37;;;;;;;6.80;5.67;;;;;;;;;;758736;184;915640;-69
2021/08/30 12:25:02;;;;;;;9.73;6.07;;;;;;;;;;755301;180;919312;-69
2021/08/30 12:27:32;;;;;;;7.30;5.97;;;;;;;;;;756556;183;918365;-70
2021/08/30 12:30:13;;;;;;;7.00;5.78;;;;;;;;;;761364;183;918569;-70
2021/08/30 12:32:45;;;;;;;7.20;6.00;;;;;;;;;;756152;184;914521;-68
2021/08/30 12:35:15;;;;;;;6.90;5.80;;;;;;;;;;759580;181;917965;-67
2021/08/30 12:37:36;;;;;;;9.40;6.63;;;;;;;;;;752512;183;919288;-68
2021/08/30 12:40:02;;;;;;;10.70;6.93;;;;;;;;;;753621;184;1024736;-67
2021/08/30 12:42:28;;;;;;;8.03;7.20;;;;;;;;;;760717;184;918689;-67
2021/08/30 12:44:54;;;;;;;9.37;7.47;;;;;;;;;;754870;182;918757;-67
2021/08/30 12:47:20;;;;;;;8.80;7.83;;;;;;;;;;754168;183;920213;-68
2021/08/30 12:49:45;;;;;;;11.07;8.53;;;;;;;;;;760781;183;919649;-67
2021/08/30 12:52:11;;;;;;;10.03;8.50;;;;;;;;;;757229;184;928443;-67
2021/08/30 12:54:37;;;;;;;9.00;7.77;;;;;;;;;;754893;183;919807;-68
2021/08/30 12:57:03;;;;;;;9.63;8.50;;;;;;;;;;754623;183;1021398;-68
2021/08/30 12:59:29;;;;;;;7.67;6.87;;;;;;;;;;755939;183;918486;-69
2021/08/30 13:01:55;;;;;;;9.13;7.43;;;;;;;;;;753662;182;921333;-69
2021/08/30 13:04:21;;;;;;;9.70;7.77;;;;;;;;;;752862;184;919271;-69
2021/08/30 13:06:46;;;;;;;8.00;6.80;;;;;;;;;;758227;184;919309;-68
2021/08/30 13:09:12;;;;;;;8.53;7.60;;;;;;;;;;756824;182;918048;-67
2021/08/30 13:11:38;;;;;;;11.17;8.50;;;;;;;;;;754272;184;924386;-68
2021/08/30 13:14:04;;;;;;;10.13;8.50;;;;;;;;;;758724;184;919446;-68
2021/08/30 13:16:30;;;;;;;9.48;8.25;;;;;;;;;;755602;184;918483;-67
2021/08/30 13:18:56;;;;;;;8.90;8.00;;;;;;;;;;755916;184;918798;-67
2021/08/30 13:21:22;;;;;;;10.37;7.83;;;;;;;;;;759334;184;918191;-68
2021/08/30 13:23:47;;;;;;;8.23;7.00;;;;;;;;;;753463;184;918758;-67
2021/08/30 13:26:13;;;;;;;10.03;8.07;;;;;;;;;;754162;184;914400;-67
2021/08/30 13:28:40;;;;;;;9.03;6.87;;;;;;;;;;755352;181;915461;-67
2021/08/30 13:31:05;;;;;;;10.80;8.30;;;;;;;;;;761234;184;916761;-66
2021/08/30 13:33:31;;;;;;;9.20;8.30;;;;;;;;;;758662;184;662516;-67
2021/08/30 13:35:56;;;;;;;8.27;6.87;;;;;;;;;;754959;183;919117;-67
2021/08/30 13:38:23;;;;;;;8.40;7.50;;;;;;;;;;765532;180;619054;-68
2021/08/30 13:40:48;;;;;;;9.00;7.43;;;;;;;;;;757256;183;919640;-68
2021/08/30 13:43:14;;;;;;;11.63;8.00;;;;;;;;;;756007;184;918898;-69
2021/08/30 13:45:40;;;;;;;8.50;6.80;;;;;;;;;;759430;183;918524;-68
2021/08/30 13:48:06;;;;;;;7.33;5.90;;;;;;;;;;754447;183;919200;-68
2021/08/30 13:50:32;;;;;;;7.17;6.47;;;;;;;;;;754479;181;917940;-68
2021/08/30 13:52:58;;;;;;;7.23;6.53;;;;;;;;;;753716;183;917629;-68
2021/08/30 13:55:23;;;;;;;6.57;5.47;;;;;;;;;;754742;183;919745;-69
2021/08/30 13:57:49;;;;;;;7.57;5.57;;;;;;;;;;754380;183;918589;-68
2021/08/30 14:00:15;;;;;;;10.17;7.17;;;;;;;;;;753723;183;919105;-68
2021/08/30 14:02:41;;;;;;;8.30;6.60;;;;;;;;;;759718;183;919230;-69
2021/08/30 14:05:07;;;;;;;8.37;6.67;;;;;;;;;;756298;183;919426;-68
2021/08/30 14:07:33;;;;;;;9.40;7.07;;;;;;;;;;755086;183;916885;-69
2021/08/30 14:09:59;;;;;;;8.90;7.93;;;;;;;;;;759366;183;918426;-68
2021/08/30 14:12:25;;;;;;;8.43;7.25;;;;;;;;;;753971;184;921585;-67
2021/08/30 14:14:51;;;;;;;11.50;8.13;;;;;;;;;;755538;184;919326;-67